Time;durP1;ratioP1;P1;durP2;ratioP2;P2;SDS_P1;SDS_P2;PMS_P1;PMS_P2;Temp;Humidity;BMP_temperature;BMP_pressure;BME280_temperature;BME280_humidity;BME280_pressure;Samples;Min_cycle;Max_cycle;Signal;HPM_P1;HPM_P2
2022/10/20 00:01:29;;;;;;;8.20;2.65;;;;;;;;;;6176390;23;20025;-81
2022/10/20 00:04:08;;;;;;;5.80;2.90;;;;;;;;;;6155937;23;20523;-81
2022/10/20 00:06:40;;;;;;;6.32;2.25;;;;;;;;;;6184537;23;20158;-81
2022/10/20 00:09:19;;;;;;;5.80;3.15;;;;;;;;;;6185697;23;20030;-80
2022/10/20 00:11:47;;;;;;;6.18;2.80;;;;;;;;;;6184591;23;20032;-83
2022/10/20 00:14:24;;;;;;;5.10;2.60;;;;;;;;;;6186379;23;20081;-81
2022/10/20 00:17:08;;;;;;;6.00;2.50;;;;;;;;;;6187292;23;20088;-80
2022/10/20 00:19:50;;;;;;;5.75;2.40;;;;;;;;;;6186468;23;20136;-80
2022/10/20 00:22:24;;;;;;;8.63;2.75;;;;;;;;;;6187560;23;20025;-81
2022/10/20 00:24:55;;;;;;;9.13;2.83;;;;;;;;;;6187117;23;20034;-83
2022/10/20 00:27:30;;;;;;;5.57;2.50;;;;;;;;;;6186072;23;20037;-81
2022/10/20 00:29:57;;;;;;;7.07;2.58;;;;;;;;;;6186306;23;20030;-83
2022/10/20 00:32:24;;;;;;;6.68;3.03;;;;;;;;;;6185756;23;20744;-83
2022/10/20 00:34:51;;;;;;;5.57;2.90;;;;;;;;;;6185200;23;20025;-83
2022/10/20 00:37:21;;;;;;;4.75;2.75;;;;;;;;;;6184552;23;20033;-81
2022/10/20 00:39:51;;;;;;;4.55;2.47;;;;;;;;;;6185714;23;20029;-83
2022/10/20 00:42:41;;;;;;;3.70;2.55;;;;;;;;;;6185313;23;20018;-82
2022/10/20 00:45:20;;;;;;;4.47;2.75;;;;;;;;;;6164822;23;20104;-81
2022/10/20 00:48:01;;;;;;;6.78;3.00;;;;;;;;;;6181298;23;20064;-83
2022/10/20 00:50:38;;;;;;;4.00;2.58;;;;;;;;;;6184427;23;20022;-81
2022/10/20 00:53:11;;;;;;;4.45;2.90;;;;;;;;;;6188792;23;20139;-83
2022/10/20 00:55:51;;;;;;;;;;;;;;;;;;6182620;23;20084;-80
2022/10/20 00:58:29;;;;;;;4.55;2.70;;;;;;;;;;6180605;23;43152;-82
2022/10/20 01:01:07;;;;;;;6.32;2.97;;;;;;;;;;6182972;23;20053;-82
2022/10/20 01:03:44;;;;;;;4.45;2.80;;;;;;;;;;6183600;23;20029;-82
2022/10/20 01:06:17;;;;;;;10.43;2.78;;;;;;;;;;6183776;23;20026;-82
2022/10/20 01:08:45;;;;;;;4.28;2.88;;;;;;;;;;6180939;23;20697;-82
2022/10/20 01:11:34;;;;;;;7.90;3.03;;;;;;;;;;6180096;23;20052;-81
2022/10/20 01:14:21;;;;;;;6.40;3.30;;;;;;;;;;6181503;23;20060;-82
2022/10/20 01:17:00;;;;;;;4.65;2.70;;;;;;;;;;6182462;23;20073;-83
2022/10/20 01:19:39;;;;;;;6.82;2.80;;;;;;;;;;6184205;23;21046;-83
2022/10/20 01:22:09;;;;;;;5.40;2.50;;;;;;;;;;6183944;23;20461;-83
2022/10/20 01:24:53;;;;;;;9.80;3.70;;;;;;;;;;6157634;23;20870;-82
2022/10/20 01:27:32;;;;;;;8.68;3.30;;;;;;;;;;6184653;23;20076;-83
2022/10/20 01:30:20;;;;;;;6.90;3.00;;;;;;;;;;6181812;23;20077;-83
2022/10/20 01:32:54;;;;;;;5.07;2.78;;;;;;;;;;6183677;23;20049;-84
2022/10/20 01:35:49;;;;;;;4.72;2.75;;;;;;;;;;6180290;23;20176;-80
2022/10/20 01:38:28;;;;;;;5.20;2.80;;;;;;;;;;6182588;23;20068;-82
2022/10/20 01:41:13;;;;;;;5.93;2.80;;;;;;;;;;6181645;23;20041;-80
2022/10/20 01:43:44;;;;;;;6.80;3.10;;;;;;;;;;6182348;23;20028;-83
2022/10/20 01:46:18;;;;;;;5.00;2.95;;;;;;;;;;6180777;23;20017;-83
2022/10/20 01:48:48;;;;;;;5.40;2.95;;;;;;;;;;6179742;23;20731;-80
2022/10/20 01:51:26;;;;;;;6.25;3.42;;;;;;;;;;6183218;23;20526;-80
2022/10/20 01:54:00;;;;;;;6.95;3.28;;;;;;;;;;6154608;23;20033;-83
2022/10/20 01:56:50;;;;;;;6.40;3.20;;;;;;;;;;6181181;23;20524;-83
2022/10/20 01:59:58;;;;;;;6.28;3.47;;;;;;;;;;6181419;23;20021;-84
2022/10/20 02:02:34;;;;;;;5.05;3.25;;;;;;;;;;6182715;23;20030;-82
2022/10/20 02:05:20;;;;;;;7.45;3.17;;;;;;;;;;6181401;23;20468;-82
2022/10/20 02:07:53;;;;;;;4.38;2.92;;;;;;;;;;6180835;23;21415;-83
2022/10/20 02:13:30;;;;;;;10.57;3.25;;;;;;;;;;6179132;23;20092;-82
2022/10/20 02:16:19;;;;;;;5.10;2.90;;;;;;;;;;6180443;23;20026;-80
2022/10/20 02:18:56;;;;;;;8.82;3.22;;;;;;;;;;6182738;23;20041;-81
2022/10/20 02:21:26;;;;;;;6.63;3.78;;;;;;;;;;6182146;23;20950;-82
2022/10/20 02:24:02;;;;;;;6.47;3.63;;;;;;;;;;6155386;23;21031;-83
2022/10/20 02:26:32;;;;;;;9.77;4.13;;;;;;;;;;6181166;23;20088;-83
2022/10/20 02:29:04;;;;;;;5.68;3.70;;;;;;;;;;6181526;23;20110;-81
2022/10/20 02:32:09;;;;;;;7.22;3.45;;;;;;;;;;6180090;23;20014;-81
2022/10/20 02:34:48;;;;;;;8.32;3.08;;;;;;;;;;6182200;23;20026;-82
2022/10/20 02:37:41;;;;;;;5.32;3.10;;;;;;;;;;6180133;23;20037;-82
2022/10/20 02:40:43;;;;;;;6.10;3.20;;;;;;;;;;6172943;23;20029;-81
2022/10/20 02:43:34;;;;;;;6.93;3.50;;;;;;;;;;6182097;23;20076;-81
2022/10/20 02:46:15;;;;;;;5.47;3.17;;;;;;;;;;6153663;23;20022;-82
2022/10/20 02:48:44;;;;;;;6.22;3.33;;;;;;;;;;6180454;23;20128;-81
2022/10/20 02:51:13;;;;;;;7.78;3.88;;;;;;;;;;6181021;23;20112;-81
2022/10/20 02:53:49;;;;;;;;;;;;;;;;;;6182458;23;20732;-81
2022/10/20 02:56:22;;;;;;;5.20;3.20;;;;;;;;;;6181265;23;44149;-81
2022/10/20 02:59:05;;;;;;;;;;;;;;;;;;;;;
2022/10/20 03:01:57;;;;;;;6.82;3.55;;;;;;;;;;6159957;23;20479;-81
2022/10/20 03:04:36;;;;;;;5.25;3.40;;;;;;;;;;6158458;23;20028;-81
2022/10/20 03:07:10;;;;;;;6.95;3.97;;;;;;;;;;6182843;23;20013;-81
2022/10/20 03:09:39;;;;;;;6.05;3.55;;;;;;;;;;6183888;23;20028;-82
2022/10/20 03:15:11;;;;;;;6.07;3.63;;;;;;;;;;6176740;23;20026;-82
2022/10/20 03:17:45;;;;;;;6.60;3.88;;;;;;;;;;6183092;23;20038;-81
2022/10/20 03:20:39;;;;;;;;;;;;;;;;;;6102397;23;20017;-81
2022/10/20 03:23:12;;;;;;;7.87;3.23;;;;;;;;;;6181072;23;44434;-82
2022/10/20 03:26:01;;;;;;;5.75;2.85;;;;;;;;;;6179945;23;20593;-81
2022/10/20 03:34:52;;;;;;;6.68;2.95;;;;;;;;;;6182116;23;20029;-81
2022/10/20 03:37:25;;;;;;;23.60;3.83;;;;;;;;;;6182018;23;20030;-81
2022/10/20 03:40:02;;;;;;;6.35;3.30;;;;;;;;;;6183163;23;20030;-82
2022/10/20 03:42:48;;;;;;;6.57;3.42;;;;;;;;;;6179204;23;20043;-81
2022/10/20 03:45:22;;;;;;;6.93;3.65;;;;;;;;;;6159302;23;20084;-81
2022/10/20 03:48:12;;;;;;;6.80;3.75;;;;;;;;;;6183309;23;20103;-81
2022/10/20 03:51:12;;;;;;;8.88;4.18;;;;;;;;;;6157484;23;20744;-81
2022/10/20 03:54:13;;;;;;;;;;;;;;;;;;;;;
2022/10/20 03:57:15;;;;;;;;;;;;;;;;;;;;;
2022/10/20 03:59:56;;;;;;;7.40;3.78;;;;;;;;;;6184560;23;20021;-81
2022/10/20 04:02:53;;;;;;;7.55;4.15;;;;;;;;;;6183114;23;20013;-81
2022/10/20 04:09:04;;;;;;;9.20;3.78;;;;;;;;;;6149421;23;20551;-81
2022/10/20 04:11:35;;;;;;;8.38;4.00;;;;;;;;;;6173430;23;20056;-81
2022/10/20 04:14:15;;;;;;;16.20;4.45;;;;;;;;;;6157324;23;20126;-82
2022/10/20 04:17:09;;;;;;;;;;;;;;;;;;;;;
2022/10/20 04:20:04;;;;;;;10.75;4.47;;;;;;;;;;6178330;23;20037;-81
2022/10/20 04:22:49;;;;;;;16.02;4.28;;;;;;;;;;6086125;23;20174;-81
2022/10/20 04:28:46;;;;;;;6.13;3.55;;;;;;;;;;6178087;23;20025;-81
2022/10/20 04:31:43;;;;;;;12.77;3.83;;;;;;;;;;6181871;23;20025;-81
2022/10/20 04:34:18;;;;;;;7.82;3.90;;;;;;;;;;6181805;23;20662;-83
2022/10/20 04:36:50;;;;;;;11.27;3.75;;;;;;;;;;6179534;23;20037;-83
2022/10/20 04:39:50;;;;;;;11.90;3.72;;;;;;;;;;6176480;23;20025;-81
2022/10/20 04:42:36;;;;;;;4.53;2.83;;;;;;;;;;6182542;23;20029;-83
2022/10/20 04:45:22;;;;;;;5.57;3.00;;;;;;;;;;6183558;23;20037;-83
2022/10/20 04:48:10;;;;;;;11.35;4.95;;;;;;;;;;6181428;23;20049;-82
2022/10/20 04:50:42;;;;;;;11.73;5.13;;;;;;;;;;6180984;23;20029;-82
2022/10/20 04:53:12;;;;;;;11.80;6.18;;;;;;;;;;6183674;23;20041;-83
2022/10/20 04:55:45;;;;;;;12.35;5.72;;;;;;;;;;6182706;23;20025;-82
2022/10/20 04:58:30;;;;;;;9.32;5.30;;;;;;;;;;6183252;23;20039;-82
2022/10/20 05:01:15;;;;;;;10.25;5.82;;;;;;;;;;6182044;23;20867;-83
2022/10/20 05:04:08;;;;;;;17.55;5.28;;;;;;;;;;6120506;23;20577;-82
2022/10/20 05:07:05;;;;;;;10.48;5.53;;;;;;;;;;6117897;23;20029;-82
2022/10/20 05:09:40;;;;;;;11.68;5.43;;;;;;;;;;6176221;23;20308;-82
2022/10/20 05:12:34;;;;;;;8.93;5.10;;;;;;;;;;6120636;23;20021;-82
2022/10/20 05:15:15;;;;;;;10.18;5.25;;;;;;;;;;6179486;23;20533;-83
2022/10/20 05:17:58;;;;;;;18.35;5.93;;;;;;;;;;6152593;23;20100;-82
2022/10/20 05:20:32;;;;;;;12.32;6.00;;;;;;;;;;6181658;23;20120;-83
2022/10/20 05:23:31;;;;;;;11.18;6.30;;;;;;;;;;6182661;23;20026;-82
2022/10/20 05:26:33;;;;;;;12.15;5.65;;;;;;;;;;6159312;23;20461;-82
2022/10/20 05:29:09;;;;;;;14.00;6.30;;;;;;;;;;6182555;23;20842;-83
2022/10/20 05:31:46;;;;;;;10.30;5.43;;;;;;;;;;6181112;23;20187;-82
2022/10/20 05:34:24;;;;;;;11.55;5.95;;;;;;;;;;6183569;23;20090;-82
2022/10/20 05:36:53;;;;;;;11.10;5.65;;;;;;;;;;6179816;23;20025;-82
2022/10/20 05:39:20;;;;;;;10.38;5.75;;;;;;;;;;6180524;23;20914;-83
2022/10/20 05:41:59;;;;;;;13.10;6.95;;;;;;;;;;6148555;23;21005;-83
2022/10/20 05:44:30;;;;;;;12.20;5.45;;;;;;;;;;6182539;23;20464;-82
2022/10/20 05:47:11;;;;;;;9.15;5.18;;;;;;;;;;6182388;23;20021;-82
2022/10/20 05:49:54;;;;;;;11.00;5.82;;;;;;;;;;6197348;23;20863;-83
2022/10/20 05:52:23;;;;;;;8.43;5.35;;;;;;;;;;6186038;23;20852;-82
2022/10/20 05:54:51;;;;;;;10.95;5.20;;;;;;;;;;6152139;23;20021;-82
2022/10/20 05:57:18;;;;;;;9.00;5.55;;;;;;;;;;6182343;23;21318;-83
2022/10/20 05:59:46;;;;;;;15.43;6.13;;;;;;;;;;6180378;23;20104;-82
2022/10/20 06:02:22;;;;;;;10.25;5.43;;;;;;;;;;6182287;23;20029;-83
2022/10/20 06:05:06;;;;;;;13.38;5.75;;;;;;;;;;6183760;23;20342;-82
2022/10/20 06:07:34;;;;;;;12.13;6.63;;;;;;;;;;6181559;23;20072;-83
2022/10/20 06:10:02;;;;;;;13.52;6.20;;;;;;;;;;6179758;23;20048;-82
2022/10/20 06:12:31;;;;;;;9.18;5.32;;;;;;;;;;6178368;23;20037;-82
2022/10/20 06:15:00;;;;;;;11.90;5.95;;;;;;;;;;6178971;23;20128;-85
2022/10/20 06:17:27;;;;;;;11.85;6.03;;;;;;;;;;6179060;23;20030;-82
2022/10/20 06:20:03;;;;;;;9.68;5.53;;;;;;;;;;6180835;23;20083;-83
2022/10/20 06:22:33;;;;;;;18.80;6.78;;;;;;;;;;6138560;23;20035;-82
2022/10/20 06:25:07;;;;;;;11.15;5.97;;;;;;;;;;6182332;23;20037;-82
2022/10/20 06:27:34;;;;;;;14.85;5.70;;;;;;;;;;6177392;23;20393;-82
2022/10/20 06:30:01;;;;;;;9.55;6.15;;;;;;;;;;6171718;23;21005;-82
2022/10/20 06:32:30;;;;;;;12.45;6.25;;;;;;;;;;6174113;23;20128;-82
2022/10/20 06:34:58;;;;;;;9.63;5.70;;;;;;;;;;6181800;23;20081;-82
2022/10/20 06:37:27;;;;;;;11.38;5.43;;;;;;;;;;6184129;23;20534;-82
2022/10/20 06:39:59;;;;;;;10.73;5.70;;;;;;;;;;6180630;23;20036;-83
2022/10/20 06:42:28;;;;;;;9.02;6.05;;;;;;;;;;6179509;23;20057;-83
2022/10/20 06:44:57;;;;;;;12.45;5.38;;;;;;;;;;6179601;23;20025;-83
2022/10/20 06:47:25;;;;;;;29.58;6.25;;;;;;;;;;6180107;23;20030;-83
2022/10/20 06:50:12;;;;;;;10.07;5.30;;;;;;;;;;6177893;23;20035;-83
2022/10/20 06:52:40;;;;;;;9.93;5.32;;;;;;;;;;6183967;23;20001;-83
2022/10/20 06:55:10;;;;;;;9.65;5.47;;;;;;;;;;6186812;23;20030;-83
2022/10/20 06:57:37;;;;;;;15.73;5.90;;;;;;;;;;6188745;23;20017;-82
2022/10/20 07:00:09;;;;;;;18.33;6.57;;;;;;;;;;6186351;23;20138;-83
2022/10/20 07:02:38;;;;;;;10.88;6.00;;;;;;;;;;6181111;23;20577;-83
2022/10/20 07:05:11;;;;;;;11.00;6.22;;;;;;;;;;6181105;23;20030;-82
2022/10/20 07:07:59;;;;;;;11.48;6.53;;;;;;;;;;6180245;23;20064;-83
2022/10/20 07:10:31;;;;;;;19.58;5.88;;;;;;;;;;6182828;23;20030;-83
2022/10/20 07:13:01;;;;;;;10.82;5.80;;;;;;;;;;6184225;23;20037;-82
2022/10/20 07:15:38;;;;;;;11.40;5.57;;;;;;;;;;6180472;23;20036;-82
2022/10/20 07:18:25;;;;;;;10.65;5.90;;;;;;;;;;6140292;23;20025;-83
2022/10/20 07:21:03;;;;;;;11.95;5.82;;;;;;;;;;6180524;23;20026;-82
2022/10/20 07:23:36;;;;;;;6.70;4.57;;;;;;;;;;6173552;23;20033;-83
2022/10/20 07:26:14;;;;;;;8.80;5.15;;;;;;;;;;6181252;23;20021;-83
2022/10/20 07:28:55;;;;;;;15.90;5.65;;;;;;;;;;6181561;23;20746;-83
2022/10/20 07:31:27;;;;;;;14.93;6.13;;;;;;;;;;6183873;23;20030;-84
2022/10/20 07:33:57;;;;;;;8.60;5.68;;;;;;;;;;6180059;23;20034;-82
2022/10/20 07:36:51;;;;;;;17.85;6.30;;;;;;;;;;6160527;23;20109;-82
2022/10/20 07:39:19;;;;;;;13.88;5.93;;;;;;;;;;6179848;23;20032;-82
2022/10/20 07:42:16;;;;;;;17.40;6.05;;;;;;;;;;6181366;23;20673;-82
2022/10/20 07:44:43;;;;;;;12.35;5.45;;;;;;;;;;6182330;23;20485;-82
2022/10/20 07:47:11;;;;;;;10.80;5.75;;;;;;;;;;6181445;23;20304;-82
2022/10/20 07:49:38;;;;;;;16.13;6.90;;;;;;;;;;6183318;23;20364;-82
2022/10/20 07:52:15;;;;;;;13.05;6.35;;;;;;;;;;6182917;23;20084;-82
2022/10/20 07:54:51;;;;;;;12.00;6.32;;;;;;;;;;6178093;23;20033;-82
2022/10/20 07:57:40;;;;;;;8.95;5.55;;;;;;;;;;6185097;23;20060;-82
2022/10/20 08:00:12;;;;;;;10.95;6.38;;;;;;;;;;6180312;23;20018;-83
2022/10/20 08:02:45;;;;;;;8.85;5.20;;;;;;;;;;6182724;23;20040;-82
2022/10/20 08:05:12;;;;;;;8.20;5.32;;;;;;;;;;6179911;23;20317;-82
2022/10/20 08:07:49;;;;;;;10.93;5.32;;;;;;;;;;6179962;23;20797;-82
2022/10/20 08:10:21;;;;;;;9.65;5.97;;;;;;;;;;6179106;23;20401;-82
2022/10/20 08:12:50;;;;;;;12.07;5.88;;;;;;;;;;6177135;23;20488;-82
2022/10/20 08:15:38;;;;;;;9.27;5.55;;;;;;;;;;6178508;23;20623;-82
2022/10/20 08:18:32;;;;;;;9.95;5.78;;;;;;;;;;6179525;23;20473;-82
2022/10/20 08:21:07;;;;;;;10.93;5.65;;;;;;;;;;6181022;23;20017;-82
2022/10/20 08:24:03;;;;;;;10.90;6.40;;;;;;;;;;6176080;23;20079;-82
2022/10/20 08:26:37;;;;;;;11.13;5.30;;;;;;;;;;6155316;23;20064;-82
2022/10/20 08:29:12;;;;;;;12.38;5.78;;;;;;;;;;6173481;23;20389;-82
2022/10/20 08:31:48;;;;;;;12.65;6.47;;;;;;;;;;6175083;23;20100;-82
2022/10/20 08:34:24;;;;;;;8.90;5.55;;;;;;;;;;6178279;23;20021;-82
2022/10/20 08:37:01;;;;;;;8.63;5.40;;;;;;;;;;6178954;23;20033;-82
2022/10/20 08:39:28;;;;;;;12.30;5.68;;;;;;;;;;6175927;23;20144;-82
2022/10/20 08:41:56;;;;;;;9.43;5.90;;;;;;;;;;6147540;23;20136;-82
2022/10/20 08:45:01;;;;;;;10.85;5.57;;;;;;;;;;6176978;23;20033;-82
2022/10/20 08:47:51;;;;;;;8.32;5.43;;;;;;;;;;6166047;23;20508;-82
2022/10/20 08:50:26;;;;;;;12.35;5.63;;;;;;;;;;6153635;23;20025;-82
2022/10/20 08:53:05;;;;;;;9.23;5.20;;;;;;;;;;6179193;23;20017;-82
2022/10/20 08:55:36;;;;;;;9.32;5.10;;;;;;;;;;6177970;23;20029;-82
2022/10/20 08:58:06;;;;;;;11.00;5.72;;;;;;;;;;6181308;23;20088;-82
2022/10/20 09:00:37;;;;;;;11.80;5.93;;;;;;;;;;6179625;23;20017;-82
2022/10/20 09:03:15;;;;;;;10.30;5.90;;;;;;;;;;6154208;23;20032;-82
2022/10/20 09:05:43;;;;;;;10.45;6.10;;;;;;;;;;6149917;23;20029;-82
2022/10/20 09:08:16;;;;;;;11.15;6.20;;;;;;;;;;6178224;23;20083;-82
2022/10/20 09:10:46;;;;;;;12.18;5.45;;;;;;;;;;6150053;23;20056;-82
2022/10/20 09:13:22;;;;;;;11.80;6.47;;;;;;;;;;6176790;23;20826;-83
2022/10/20 09:15:51;;;;;;;10.73;6.38;;;;;;;;;;6177497;23;20677;-83
2022/10/20 09:18:21;;;;;;;11.60;5.60;;;;;;;;;;6179230;23;20044;-83
2022/10/20 09:20:53;;;;;;;11.63;6.28;;;;;;;;;;6175977;23;20112;-82
2022/10/20 09:23:22;;;;;;;10.70;5.95;;;;;;;;;;6178398;23;20100;-82
2022/10/20 09:26:33;;;;;;;10.80;6.07;;;;;;;;;;6178934;23;20033;-83
2022/10/20 09:29:36;;;;;;;9.35;5.40;;;;;;;;;;6179766;23;20496;-83
2022/10/20 09:32:15;;;;;;;10.65;5.80;;;;;;;;;;6153848;23;20081;-83
2022/10/20 09:35:23;;;;;;;15.98;6.53;;;;;;;;;;6181664;23;20028;-81
2022/10/20 09:38:15;;;;;;;15.68;6.10;;;;;;;;;;6155832;23;20048;-83
2022/10/20 09:41:05;;;;;;;10.85;5.78;;;;;;;;;;6184187;23;20033;-83
2022/10/20 09:43:36;;;;;;;12.70;5.90;;;;;;;;;;6155418;23;20031;-83
2022/10/20 09:46:08;;;;;;;8.90;5.97;;;;;;;;;;6180824;23;21099;-83
2022/10/20 09:48:51;;;;;;;12.43;6.85;;;;;;;;;;6182441;23;20449;-82
2022/10/20 09:51:20;;;;;;;11.40;6.53;;;;;;;;;;6181999;23;20037;-83
2022/10/20 09:53:56;;;;;;;13.20;6.63;;;;;;;;;;6186202;23;20048;-82
2022/10/20 09:56:31;;;;;;;9.20;5.97;;;;;;;;;;6185350;23;20214;-83
2022/10/20 09:59:24;;;;;;;14.70;7.05;;;;;;;;;;6186904;23;20338;-83
2022/10/20 10:02:02;;;;;;;11.18;6.68;;;;;;;;;;6180349;23;20033;-83
2022/10/20 10:04:35;;;;;;;12.32;6.07;;;;;;;;;;6184165;23;20476;-85
2022/10/20 10:07:08;;;;;;;17.92;6.68;;;;;;;;;;6158371;23;20033;-81
2022/10/20 10:09:38;;;;;;;13.50;7.25;;;;;;;;;;6157892;23;20638;-83
2022/10/20 10:12:16;;;;;;;13.13;6.22;;;;;;;;;;6183567;23;20039;-82
2022/10/20 10:14:53;;;;;;;11.75;7.30;;;;;;;;;;6157502;23;20879;-81
2022/10/20 10:17:31;;;;;;;12.27;6.40;;;;;;;;;;6181952;23;20032;-82
2022/10/20 10:20:04;;;;;;;13.35;6.82;;;;;;;;;;6185539;23;20044;-82
2022/10/20 10:22:31;;;;;;;13.38;6.07;;;;;;;;;;6181501;23;20931;-82
2022/10/20 10:25:06;;;;;;;11.57;6.47;;;;;;;;;;6183805;23;20026;-81
2022/10/20 10:27:40;;;;;;;11.65;7.05;;;;;;;;;;6180721;23;20720;-82
2022/10/20 10:30:29;;;;;;;12.07;7.35;;;;;;;;;;6182728;23;20135;-81
2022/10/20 10:35:48;;;;;;;18.42;7.10;;;;;;;;;;6173028;23;20139;-81
2022/10/20 10:38:37;;;;;;;15.38;7.07;;;;;;;;;;6185588;23;20077;-81
2022/10/20 10:41:23;;;;;;;12.32;7.22;;;;;;;;;;6157908;23;20017;-81
2022/10/20 10:44:15;;;;;;;22.35;7.63;;;;;;;;;;6183616;23;20575;-82
2022/10/20 10:47:17;;;;;;;11.10;7.22;;;;;;;;;;6182025;23;20100;-84
2022/10/20 10:50:10;;;;;;;10.02;6.85;;;;;;;;;;6182686;23;20028;-82
2022/10/20 10:53:00;;;;;;;14.18;7.18;;;;;;;;;;6112406;23;20109;-83
2022/10/20 10:56:02;;;;;;;16.02;7.30;;;;;;;;;;6181873;23;20033;-83
2022/10/20 10:58:43;;;;;;;16.48;7.35;;;;;;;;;;6032800;23;20081;-83
2022/10/20 11:01:19;;;;;;;15.93;8.40;;;;;;;;;;6032542;23;20415;-84
2022/10/20 11:03:52;;;;;;;13.63;7.80;;;;;;;;;;6030815;23;20047;-83
2022/10/20 11:06:33;;;;;;;19.95;8.43;;;;;;;;;;6033941;23;20445;-84
2022/10/20 11:09:26;;;;;;;14.80;8.20;;;;;;;;;;6032123;23;20077;-84
2022/10/20 11:12:11;;;;;;;16.42;8.32;;;;;;;;;;6032250;23;20036;-83
2022/10/20 11:14:50;;;;;;;13.30;7.75;;;;;;;;;;6032856;23;20028;-84
2022/10/20 11:17:34;;;;;;;17.63;8.77;;;;;;;;;;6032126;23;20756;-84
2022/10/20 11:20:21;;;;;;;19.20;8.77;;;;;;;;;;6023851;23;20028;-84
2022/10/20 11:23:32;;;;;;;14.80;8.57;;;;;;;;;;6041064;23;20840;-83
2022/10/20 11:26:23;;;;;;;14.10;8.95;;;;;;;;;;6062175;23;20133;-84
2022/10/20 11:29:20;;;;;;;19.50;8.73;;;;;;;;;;6059374;23;20079;-84
2022/10/20 11:32:16;;;;;;;22.08;9.93;;;;;;;;;;6074285;23;20123;-82
2022/10/20 11:35:19;;;;;;;16.45;9.45;;;;;;;;;;6176507;23;20026;-85
2022/10/20 11:38:12;;;;;;;18.40;8.52;;;;;;;;;;6158979;23;20017;-85
2022/10/20 11:40:39;;;;;;;;;;;;;;;;;;6133915;23;20080;-82
2022/10/20 11:43:26;;;;;;;20.10;9.90;;;;;;;;;;6177474;23;44026;-85
2022/10/20 11:45:56;;;;;;;18.58;9.45;;;;;;;;;;6182089;23;20030;-85
2022/10/20 11:48:52;;;;;;;20.15;10.43;;;;;;;;;;6177986;23;20030;-84
2022/10/20 11:51:52;;;;;;;19.60;9.88;;;;;;;;;;6181492;23;20022;-84
2022/10/20 11:54:41;;;;;;;20.58;10.90;;;;;;;;;;6181483;23;20035;-83
2022/10/20 11:57:31;;;;;;;26.98;11.27;;;;;;;;;;6179274;23;20030;-84
2022/10/20 12:00:23;;;;;;;25.85;11.07;;;;;;;;;;6177587;23;20144;-84
2022/10/20 12:03:01;;;;;;;23.33;10.70;;;;;;;;;;6176504;23;20363;-84
2022/10/20 12:06:13;;;;;;;18.58;10.98;;;;;;;;;;6175550;23;20029;-85
2022/10/20 12:09:02;;;;;;;21.20;11.15;;;;;;;;;;6176476;23;20462;-84
2022/10/20 12:11:38;;;;;;;36.10;11.30;;;;;;;;;;6176634;23;20103;-84
2022/10/20 12:14:05;;;;;;;22.88;11.00;;;;;;;;;;6178322;23;20029;-85
2022/10/20 12:17:13;;;;;;;19.83;12.48;;;;;;;;;;6178123;23;20438;-84
2022/10/20 12:19:51;;;;;;;23.42;11.07;;;;;;;;;;6178508;23;20084;-84
2022/10/20 12:22:27;;;;;;;21.23;11.23;;;;;;;;;;6178765;23;20025;-85
2022/10/20 12:24:54;;;;;;;20.75;11.10;;;;;;;;;;6177017;23;20326;-85
2022/10/20 12:27:29;;;;;;;25.35;11.95;;;;;;;;;;6178064;23;20026;-85
2022/10/20 12:30:02;;;;;;;21.67;11.52;;;;;;;;;;6182197;23;20404;-85
2022/10/20 12:33:06;;;;;;;22.02;11.60;;;;;;;;;;6177951;23;20590;-85
2022/10/20 12:36:09;;;;;;;27.42;11.68;;;;;;;;;;6159308;23;20040;-85
2022/10/20 12:38:37;;;;;;;30.23;12.27;;;;;;;;;;6085752;23;20021;-84
2022/10/20 12:41:25;;;;;;;26.77;12.38;;;;;;;;;;6165615;23;20185;-84
2022/10/20 12:44:11;;;;;;;22.20;11.68;;;;;;;;;;6177886;23;20025;-85
2022/10/20 12:46:43;;;;;;;24.08;11.65;;;;;;;;;;6178972;23;20039;-85
2022/10/20 12:49:23;;;;;;;23.40;11.90;;;;;;;;;;6181031;23;20029;-85
2022/10/20 12:52:00;;;;;;;20.17;11.40;;;;;;;;;;6181347;23;20026;-86
2022/10/20 12:54:40;;;;;;;23.90;11.77;;;;;;;;;;6186699;23;20033;-86
2022/10/20 13:00:48;;;;;;;32.42;12.23;;;;;;;;;;6185997;23;20104;-86
2022/10/20 13:10:05;;;;;;;29.30;12.18;;;;;;;;;;6169760;23;20080;-85
2022/10/20 13:12:39;;;;;;;34.38;13.23;;;;;;;;;;6181890;23;20049;-85
2022/10/20 13:15:22;;;;;;;29.63;13.00;;;;;;;;;;6177423;23;20021;-85
2022/10/20 13:17:57;;;;;;;26.77;12.48;;;;;;;;;;6179685;23;20021;-85
2022/10/20 13:23:40;;;;;;;26.45;13.30;;;;;;;;;;6176492;23;20066;-85
2022/10/20 13:26:26;;;;;;;25.73;12.60;;;;;;;;;;6154503;23;20083;-85
2022/10/20 13:29:10;;;;;;;25.33;13.43;;;;;;;;;;6178232;23;20022;-85
2022/10/20 13:35:42;;;;;;;21.25;12.10;;;;;;;;;;6175675;23;20053;-85
2022/10/20 13:38:38;;;;;;;23.70;12.68;;;;;;;;;;6160325;23;20048;-84
2022/10/20 13:41:28;;;;;;;19.98;11.27;;;;;;;;;;6028598;23;20034;-84
2022/10/20 13:44:39;;;;;;;21.13;11.55;;;;;;;;;;6005337;23;20212;-85
2022/10/20 13:47:15;;;;;;;24.77;11.95;;;;;;;;;;6017096;23;20128;-85
2022/10/20 13:50:06;;;;;;;28.38;12.30;;;;;;;;;;6029716;23;20072;-85
2022/10/20 13:52:54;;;;;;;22.15;11.82;;;;;;;;;;6028578;23;20948;-85
2022/10/20 13:55:26;;;;;;;23.38;13.00;;;;;;;;;;6027601;23;20327;-85
2022/10/20 13:58:18;;;;;;;26.50;13.00;;;;;;;;;;6028358;23;20040;-85
2022/10/20 14:00:58;;;;;;;22.75;13.23;;;;;;;;;;6020807;23;20028;-85
2022/10/20 14:03:35;;;;;;;24.48;12.60;;;;;;;;;;6029117;23;20811;-85
2022/10/20 14:06:45;;;;;;;20.90;11.70;;;;;;;;;;6029118;23;20092;-85
2022/10/20 14:09:44;;;;;;;23.90;13.15;;;;;;;;;;5970727;23;20032;-84
2022/10/20 14:12:26;;;;;;;19.85;12.02;;;;;;;;;;5974809;23;20024;-85
2022/10/20 14:15:13;;;;;;;24.67;13.00;;;;;;;;;;5969424;23;20107;-84
2022/10/20 14:18:01;;;;;;;24.73;12.68;;;;;;;;;;6014160;23;20035;-84
2022/10/20 14:20:36;;;;;;;25.63;12.05;;;;;;;;;;6085606;23;20023;-84
2022/10/20 14:23:14;;;;;;;26.52;13.48;;;;;;;;;;6082513;23;20051;-85
2022/10/20 14:26:12;;;;;;;23.08;13.02;;;;;;;;;;6066255;23;20027;-84
2022/10/20 14:29:14;;;;;;;28.90;12.07;;;;;;;;;;6085590;23;20031;-85
2022/10/20 14:32:15;;;;;;;24.30;12.80;;;;;;;;;;6084285;23;20784;-85
2022/10/20 14:35:20;;;;;;;34.05;12.77;;;;;;;;;;6065431;23;20075;-85
2022/10/20 14:37:52;;;;;;;28.45;13.30;;;;;;;;;;6061285;23;20027;-85
2022/10/20 14:40:23;;;;;;;24.20;12.38;;;;;;;;;;6085828;23;20050;-85
2022/10/20 14:42:58;;;;;;;24.10;12.93;;;;;;;;;;6116351;23;20646;-84
2022/10/20 14:45:26;;;;;;;29.35;13.48;;;;;;;;;;6178416;23;20076;-84
2022/10/20 14:48:14;;;;;;;26.45;13.70;;;;;;;;;;6176534;23;20033;-84
2022/10/20 14:50:47;;;;;;;22.17;13.02;;;;;;;;;;6174986;23;20025;-84
2022/10/20 14:53:35;;;;;;;27.45;13.75;;;;;;;;;;6179195;23;20030;-84
2022/10/20 14:56:31;;;;;;;21.95;13.60;;;;;;;;;;6180522;23;20944;-84
2022/10/20 14:59:11;;;;;;;25.35;12.93;;;;;;;;;;6179752;23;20026;-85
2022/10/20 15:02:03;;;;;;;25.85;13.52;;;;;;;;;;6155287;23;20112;-84
2022/10/20 15:04:33;;;;;;;28.77;13.07;;;;;;;;;;6177223;23;20025;-84
2022/10/20 15:07:32;;;;;;;26.33;14.20;;;;;;;;;;6179771;23;20132;-85
2022/10/20 15:10:20;;;;;;;24.35;12.68;;;;;;;;;;6176603;23;20018;-84
2022/10/20 15:12:54;;;;;;;24.08;13.55;;;;;;;;;;6177020;23;20036;-84
2022/10/20 15:15:38;;;;;;;27.25;13.32;;;;;;;;;;6178187;23;20032;-85
2022/10/20 15:18:29;;;;;;;24.52;13.38;;;;;;;;;;6177306;23;20088;-84
2022/10/20 15:21:19;;;;;;;26.27;13.63;;;;;;;;;;6178715;23;20104;-84
2022/10/20 15:23:55;;;;;;;26.63;13.75;;;;;;;;;;6177400;23;20080;-84
2022/10/20 15:26:43;;;;;;;30.08;14.18;;;;;;;;;;6177079;23;20029;-84
2022/10/20 15:29:29;;;;;;;25.63;13.65;;;;;;;;;;6177300;23;20084;-84
2022/10/20 15:32:03;;;;;;;20.75;12.30;;;;;;;;;;6181487;23;20587;-85
2022/10/20 15:35:07;;;;;;;21.55;13.13;;;;;;;;;;6155642;23;20515;-84
2022/10/20 15:37:37;;;;;;;27.13;13.50;;;;;;;;;;6179577;23;20025;-84
2022/10/20 15:40:12;;;;;;;24.27;13.77;;;;;;;;;;6178296;23;20025;-85
2022/10/20 15:42:47;;;;;;;22.13;13.35;;;;;;;;;;6179759;23;20116;-84
2022/10/20 15:45:40;;;;;;;24.50;13.95;;;;;;;;;;6167642;23;20040;-84
2022/10/20 15:48:18;;;;;;;27.23;13.20;;;;;;;;;;6154102;23;20060;-84
2022/10/20 15:50:45;;;;;;;30.88;14.32;;;;;;;;;;6178821;23;20026;-84
2022/10/20 15:53:20;;;;;;;38.03;13.63;;;;;;;;;;6179881;23;20041;-85
2022/10/20 15:55:52;;;;;;;25.80;13.15;;;;;;;;;;6185427;23;20036;-84
2022/10/20 15:58:25;;;;;;;27.42;12.95;;;;;;;;;;6180336;23;20021;-84
2022/10/20 16:01:02;;;;;;;22.08;12.95;;;;;;;;;;6178070;23;20033;-84
2022/10/20 16:03:42;;;;;;;24.33;13.27;;;;;;;;;;6157058;23;20154;-84
2022/10/20 16:06:14;;;;;;;26.95;13.63;;;;;;;;;;6181321;23;20033;-84
2022/10/20 16:08:42;;;;;;;26.42;13.40;;;;;;;;;;6181655;23;20372;-84
2022/10/20 16:11:21;;;;;;;;;;;;;;;;;;;;;
2022/10/20 16:17:18;;;;;;;30.38;13.52;;;;;;;;;;6119341;23;20766;-84
2022/10/20 16:20:13;;;;;;;25.25;12.55;;;;;;;;;;6115810;23;20674;-84
2022/10/20 16:23:00;;;;;;;28.77;13.15;;;;;;;;;;6091275;23;20026;-84
2022/10/20 16:25:27;;;;;;;24.67;13.30;;;;;;;;;;6140092;23;20051;-84
2022/10/20 16:27:54;;;;;;;24.73;13.10;;;;;;;;;;6146750;23;20029;-84
2022/10/20 16:30:32;;;;;;;29.30;13.18;;;;;;;;;;6147727;23;20046;-85
2022/10/20 16:33:13;;;;;;;29.17;13.43;;;;;;;;;;6122185;23;20764;-84
2022/10/20 16:36:00;;;;;;;27.60;13.50;;;;;;;;;;6148392;23;20390;-84